sensor_id;sensor_type;location;lat;lon;timestamp;pressure;altitude;pressure_sealevel;temperature
73673;BMP280;61972;19.480;-99.240;2022-08-19T00:00:35;77780.41;;;28.00
73673;BMP280;61972;19.480;-99.240;2022-08-19T00:03:02;77783.44;;;27.98
73673;BMP280;61972;19.480;-99.240;2022-08-19T00:05:29;77787.03;;;27.96
73673;BMP280;61972;19.480;-99.240;2022-08-19T00:07:55;77780.13;;;27.95
73673;BMP280;61972;19.480;-99.240;2022-08-19T00:10:21;77783.72;;;27.93
73673;BMP280;61972;19.480;-99.240;2022-08-19T00:12:47;77778.44;;;27.93
73673;BMP280;61972;19.480;-99.240;2022-08-19T00:15:16;77764.63;;;27.90
73673;BMP280;61972;19.480;-99.240;2022-08-19T00:17:44;77776.66;;;27.89
73673;BMP280;61972;19.480;-99.240;2022-08-19T00:20:12;77774.03;;;27.89
73673;BMP280;61972;19.480;-99.240;2022-08-19T00:22:39;77768.06;;;27.86
73673;BMP280;61972;19.480;-99.240;2022-08-19T00:25:07;77759.06;;;27.85
73673;BMP280;61972;19.480;-99.240;2022-08-19T00:27:33;77756.84;;;27.83
73673;BMP280;61972;19.480;-99.240;2022-08-19T00:30:00;77743.59;;;27.80
73673;BMP280;61972;19.480;-99.240;2022-08-19T00:32:29;77736.09;;;27.78
73673;BMP280;61972;19.480;-99.240;2022-08-19T00:34:55;77740.25;;;27.77
73673;BMP280;61972;19.480;-99.240;2022-08-19T00:37:23;77741.19;;;27.76
73673;BMP280;61972;19.480;-99.240;2022-08-19T00:39:50;77747.97;;;27.75
73673;BMP280;61972;19.480;-99.240;2022-08-19T00:42:21;77736.63;;;27.69
73673;BMP280;61972;19.480;-99.240;2022-08-19T00:44:47;77730.25;;;27.68
73673;BMP280;61972;19.480;-99.240;2022-08-19T00:47:13;77723.31;;;27.66
73673;BMP280;61972;19.480;-99.240;2022-08-19T00:49:51;77705.34;;;27.64
73673;BMP280;61972;19.480;-99.240;2022-08-19T00:52:27;77678.44;;;27.61
73673;BMP280;61972;19.480;-99.240;2022-08-19T00:54:57;77669.44;;;27.60
73673;BMP280;61972;19.480;-99.240;2022-08-19T00:57:30;77656.72;;;27.58
73673;BMP280;61972;19.480;-99.240;2022-08-19T00:59:58;77661.41;;;27.58
73673;BMP280;61972;19.480;-99.240;2022-08-19T01:02:25;77660.84;;;27.57
73673;BMP280;61972;19.480;-99.240;2022-08-19T01:04:53;77668.59;;;27.55
73673;BMP280;61972;19.480;-99.240;2022-08-19T01:07:19;77699.50;;;27.54
73673;BMP280;61972;19.480;-99.240;2022-08-19T01:09:48;77712.63;;;27.54
73673;BMP280;61972;19.480;-99.240;2022-08-19T01:12:15;77727.97;;;27.56
73673;BMP280;61972;19.480;-99.240;2022-08-19T01:14:42;77732.09;;;27.55
73673;BMP280;61972;19.480;-99.240;2022-08-19T01:17:10;77734.91;;;27.58
73673;BMP280;61972;19.480;-99.240;2022-08-19T01:19:40;77750.09;;;27.57
73673;BMP280;61972;19.480;-99.240;2022-08-19T01:22:16;77751.59;;;27.56
73673;BMP280;61972;19.480;-99.240;2022-08-19T01:24:45;77752.16;;;27.57
73673;BMP280;61972;19.480;-99.240;2022-08-19T01:27:11;77750.66;;;27.58
73673;BMP280;61972;19.480;-99.240;2022-08-19T01:29:41;77741.66;;;27.57
73673;BMP280;61972;19.480;-99.240;2022-08-19T01:32:10;77742.59;;;27.55
73673;BMP280;61972;19.480;-99.240;2022-08-19T01:34:37;77734.59;;;27.52
73673;BMP280;61972;19.480;-99.240;2022-08-19T01:37:11;77732.38;;;27.50
73673;BMP280;61972;19.480;-99.240;2022-08-19T01:39:40;77729.63;;;27.48
73673;BMP280;61972;19.480;-99.240;2022-08-19T01:42:08;77739.00;;;27.47
73673;BMP280;61972;19.480;-99.240;2022-08-19T01:44:38;77742.56;;;27.45
73673;BMP280;61972;19.480;-99.240;2022-08-19T01:47:05;77743.94;;;27.42
73673;BMP280;61972;19.480;-99.240;2022-08-19T01:49:32;77753.88;;;27.41
73673;BMP280;61972;19.480;-99.240;2022-08-19T01:51:59;77759.13;;;27.41
73673;BMP280;61972;19.480;-99.240;2022-08-19T01:54:25;77769.06;;;27.41
73673;BMP280;61972;19.480;-99.240;2022-08-19T01:56:53;77775.44;;;27.42
73673;BMP280;61972;19.480;-99.240;2022-08-19T01:59:22;77781.63;;;27.40
73673;BMP280;61972;19.480;-99.240;2022-08-19T02:01:50;77786.16;;;27.37
73673;BMP280;61972;19.480;-99.240;2022-08-19T02:04:16;77796.66;;;27.37
73673;BMP280;61972;19.480;-99.240;2022-08-19T02:06:42;77803.03;;;27.38
73673;BMP280;61972;19.480;-99.240;2022-08-19T02:09:09;77803.16;;;27.41
73673;BMP280;61972;19.480;-99.240;2022-08-19T02:11:38;77804.44;;;27.44
73673;BMP280;61972;19.480;-99.240;2022-08-19T02:14:07;77810.25;;;27.45
73673;BMP280;61972;19.480;-99.240;2022-08-19T02:16:34;77819.22;;;27.46
73673;BMP280;61972;19.480;-99.240;2022-08-19T02:19:00;77821.47;;;27.48
73673;BMP280;61972;19.480;-99.240;2022-08-19T02:21:27;77808.34;;;27.48
73673;BMP280;61972;19.480;-99.240;2022-08-19T02:23:53;77817.72;;;27.47
73673;BMP280;61972;19.480;-99.240;2022-08-19T02:26:21;77814.53;;;27.46
73673;BMP280;61972;19.480;-99.240;2022-08-19T02:28:48;77815.09;;;27.47
73673;BMP280;61972;19.480;-99.240;2022-08-19T02:31:19;77803.88;;;27.44
73673;BMP280;61972;19.480;-99.240;2022-08-19T02:33:46;77810.81;;;27.45
73673;BMP280;61972;19.480;-99.240;2022-08-19T02:36:14;77805.56;;;27.45
73673;BMP280;61972;19.480;-99.240;2022-08-19T02:38:41;77805.56;;;27.45
73673;BMP280;61972;19.480;-99.240;2022-08-19T02:41:15;77809.13;;;27.44
73673;BMP280;61972;19.480;-99.240;2022-08-19T02:43:42;77811.34;;;27.46
73673;BMP280;61972;19.480;-99.240;2022-08-19T02:46:22;77810.25;;;27.45
73673;BMP280;61972;19.480;-99.240;2022-08-19T02:48:50;77802.94;;;27.45
73673;BMP280;61972;19.480;-99.240;2022-08-19T02:51:20;77809.13;;;27.44
73673;BMP280;61972;19.480;-99.240;2022-08-19T02:53:46;77804.44;;;27.44
73673;BMP280;61972;19.480;-99.240;2022-08-19T02:56:13;77808.00;;;27.43
73673;BMP280;61972;19.480;-99.240;2022-08-19T02:58:40;77813.84;;;27.43
73673;BMP280;61972;19.480;-99.240;2022-08-19T03:01:06;77817.41;;;27.42
73673;BMP280;61972;19.480;-99.240;2022-08-19T03:03:33;77818.91;;;27.41
73673;BMP280;61972;19.480;-99.240;2022-08-19T03:08:31;77811.44;;;27.39
73673;BMP280;61972;19.480;-99.240;2022-08-19T03:10:57;77803.97;;;27.37
73673;BMP280;61972;19.480;-99.240;2022-08-19T03:13:23;77813.91;;;27.36
73673;BMP280;61972;19.480;-99.240;2022-08-19T03:15:55;77812.25;;;27.35
73673;BMP280;61972;19.480;-99.240;2022-08-19T03:18:21;77820.13;;;27.35
73673;BMP280;61972;19.480;-99.240;2022-08-19T03:20:49;77813.75;;;27.33
73673;BMP280;61972;19.480;-99.240;2022-08-19T03:23:18;77813.19;;;27.33
73673;BMP280;61972;19.480;-99.240;2022-08-19T03:25:47;77809.47;;;27.32
73673;BMP280;61972;19.480;-99.240;2022-08-19T03:28:14;77816.78;;;27.31
73673;BMP280;61972;19.480;-99.240;2022-08-19T03:30:43;77827.28;;;27.31
73673;BMP280;61972;19.480;-99.240;2022-08-19T03:33:10;77839.28;;;27.30
73673;BMP280;61972;19.480;-99.240;2022-08-19T03:35:37;77840.78;;;27.29
73673;BMP280;61972;19.480;-99.240;2022-08-19T03:38:05;77849.22;;;27.30
73673;BMP280;61972;19.480;-99.240;2022-08-19T03:40:36;77850.19;;;27.28
73673;BMP280;61972;19.480;-99.240;2022-08-19T03:43:02;77858.63;;;27.29
73673;BMP280;61972;19.480;-99.240;2022-08-19T03:45:28;77859.56;;;27.27
73673;BMP280;61972;19.480;-99.240;2022-08-19T03:47:55;77863.69;;;27.26
73673;BMP280;61972;19.480;-99.240;2022-08-19T03:50:21;77871.97;;;27.24
73673;BMP280;61972;19.480;-99.240;2022-08-19T03:52:49;77873.06;;;27.25
73673;BMP280;61972;19.480;-99.240;2022-08-19T03:55:17;77868.22;;;27.23
73673;BMP280;61972;19.480;-99.240;2022-08-19T03:57:43;77871.41;;;27.24
73673;BMP280;61972;19.480;-99.240;2022-08-19T04:00:12;77871.19;;;27.28
73673;BMP280;61972;19.480;-99.240;2022-08-19T04:02:38;77873.53;;;27.33
73673;BMP280;61972;19.480;-99.240;2022-08-19T04:05:04;77864.88;;;27.37
73673;BMP280;61972;19.480;-99.240;2022-08-19T04:07:31;77858.84;;;27.41
73673;BMP280;61972;19.480;-99.240;2022-08-19T04:09:57;77858.03;;;27.45
73673;BMP280;61972;19.480;-99.240;2022-08-19T04:12:23;77856.28;;;27.51
73673;BMP280;61972;19.480;-99.240;2022-08-19T04:14:49;77857.00;;;27.54
73673;BMP280;61972;19.480;-99.240;2022-08-19T04:17:15;77853.97;;;27.56
73673;BMP280;61972;19.480;-99.240;2022-08-19T04:19:41;77850.97;;;27.58
73673;BMP280;61972;19.480;-99.240;2022-08-19T04:22:08;77854.31;;;27.61
73673;BMP280;61972;19.480;-99.240;2022-08-19T04:24:37;77850.16;;;27.62
73673;BMP280;61972;19.480;-99.240;2022-08-19T04:27:04;77853.47;;;27.65
73673;BMP280;61972;19.480;-99.240;2022-08-19T04:29:32;77863.03;;;27.67
73673;BMP280;61972;19.480;-99.240;2022-08-19T04:31:59;77864.69;;;27.68
73673;BMP280;61972;19.480;-99.240;2022-08-19T04:34:27;77864.31;;;27.70
73673;BMP280;61972;19.480;-99.240;2022-08-19T04:36:57;77870.66;;;27.72
73673;BMP280;61972;19.480;-99.240;2022-08-19T04:39:30;77866.53;;;27.73
73673;BMP280;61972;19.480;-99.240;2022-08-19T04:42:16;77861.81;;;27.73
73673;BMP280;61972;19.480;-99.240;2022-08-19T04:45:00;77857.69;;;27.74
73673;BMP280;61972;19.480;-99.240;2022-08-19T04:47:28;77865.56;;;27.74
73673;BMP280;61972;19.480;-99.240;2022-08-19T04:49:54;77867.06;;;27.73
73673;BMP280;61972;19.480;-99.240;2022-08-19T04:52:21;77862.38;;;27.74
73673;BMP280;61972;19.480;-99.240;2022-08-19T04:54:47;77851.88;;;27.74
73673;BMP280;61972;19.480;-99.240;2022-08-19T04:57:13;77851.31;;;27.73
73673;BMP280;61972;19.480;-99.240;2022-08-19T04:59:39;77859.19;;;27.73
73673;BMP280;61972;19.480;-99.240;2022-08-19T05:02:07;77865.00;;;27.74
73673;BMP280;61972;19.480;-99.240;2022-08-19T05:04:34;77875.53;;;27.74
73673;BMP280;61972;19.480;-99.240;2022-08-19T05:07:01;77880.78;;;27.74
73673;BMP280;61972;19.480;-99.240;2022-08-19T05:09:29;77878.16;;;27.74
73673;BMP280;61972;19.480;-99.240;2022-08-19T05:11:55;77868.75;;;27.75
73673;BMP280;61972;19.480;-99.240;2022-08-19T05:14:21;77865.56;;;27.74
73673;BMP280;61972;19.480;-99.240;2022-08-19T05:16:48;77863.50;;;27.75
73673;BMP280;61972;19.480;-99.240;2022-08-19T05:19:14;77862.94;;;27.74
73673;BMP280;61972;19.480;-99.240;2022-08-19T05:22:00;77863.50;;;27.75
73673;BMP280;61972;19.480;-99.240;2022-08-19T05:24:44;77853.94;;;27.73
73673;BMP280;61972;19.480;-99.240;2022-08-19T05:27:11;77856.03;;;27.73
73673;BMP280;61972;19.480;-99.240;2022-08-19T05:29:37;77851.88;;;27.74
73673;BMP280;61972;19.480;-99.240;2022-08-19T05:32:04;77851.31;;;27.73
73673;BMP280;61972;19.480;-99.240;2022-08-19T05:34:34;77857.69;;;27.74
73673;BMP280;61972;19.480;-99.240;2022-08-19T05:37:02;77857.13;;;27.74
73673;BMP280;61972;19.480;-99.240;2022-08-19T05:39:31;77857.13;;;27.74
73673;BMP280;61972;19.480;-99.240;2022-08-19T05:42:02;77856.03;;;27.73
73673;BMP280;61972;19.480;-99.240;2022-08-19T05:44:31;77860.69;;;27.72
73673;BMP280;61972;19.480;-99.240;2022-08-19T05:46:59;77855.44;;;27.72
73673;BMP280;61972;19.480;-99.240;2022-08-19T05:49:27;77859.75;;;27.74
73673;BMP280;61972;19.480;-99.240;2022-08-19T05:51:54;77851.72;;;27.71
73673;BMP280;61972;19.480;-99.240;2022-08-19T05:54:22;77847.56;;;27.72
73673;BMP280;61972;19.480;-99.240;2022-08-19T05:56:52;77853.78;;;27.70
73673;BMP280;61972;19.480;-99.240;2022-08-19T05:59:19;77847.03;;;27.72
73673;BMP280;61972;19.480;-99.240;2022-08-19T06:01:48;77855.44;;;27.72
73673;BMP280;61972;19.480;-99.240;2022-08-19T06:04:21;77844.41;;;27.72
73673;BMP280;61972;19.480;-99.240;2022-08-19T06:06:49;77841.22;;;27.71
73673;BMP280;61972;19.480;-99.240;2022-08-19T06:09:17;77847.44;;;27.69
73673;BMP280;61972;19.480;-99.240;2022-08-19T06:11:47;77833.75;;;27.69
73673;BMP280;61972;19.480;-99.240;2022-08-19T06:14:18;77832.78;;;27.70
73673;BMP280;61972;19.480;-99.240;2022-08-19T06:16:46;77836.94;;;27.69
73673;BMP280;61972;19.480;-99.240;2022-08-19T06:19:15;77842.19;;;27.69
73673;BMP280;61972;19.480;-99.240;2022-08-19T06:21:44;77841.06;;;27.68
73673;BMP280;61972;19.480;-99.240;2022-08-19T06:24:14;77834.72;;;27.67
73673;BMP280;61972;19.480;-99.240;2022-08-19T06:26:44;77849.34;;;27.66
73673;BMP280;61972;19.480;-99.240;2022-08-19T06:29:14;77849.91;;;27.67
73673;BMP280;61972;19.480;-99.240;2022-08-19T06:31:47;77849.34;;;27.66
73673;BMP280;61972;19.480;-99.240;2022-08-19T06:34:15;77848.22;;;27.65
73673;BMP280;61972;19.480;-99.240;2022-08-19T06:36:46;77840.34;;;27.65
73673;BMP280;61972;19.480;-99.240;2022-08-19T06:39:34;77846.56;;;27.64
73673;BMP280;61972;19.480;-99.240;2022-08-19T06:42:02;77850.69;;;27.63
73673;BMP280;61972;19.480;-99.240;2022-08-19T06:44:34;77851.28;;;27.63
73673;BMP280;61972;19.480;-99.240;2022-08-19T06:47:03;77848.06;;;27.63
73673;BMP280;61972;19.480;-99.240;2022-08-19T06:49:30;77838.38;;;27.59
73673;BMP280;61972;19.480;-99.240;2022-08-19T06:51:59;77841.56;;;27.59
73673;BMP280;61972;19.480;-99.240;2022-08-19T06:54:26;77843.22;;;27.61
73673;BMP280;61972;19.480;-99.240;2022-08-19T06:56:54;77836.84;;;27.60
73673;BMP280;61972;19.480;-99.240;2022-08-19T06:59:22;77846.81;;;27.59
73673;BMP280;61972;19.480;-99.240;2022-08-19T07:01:55;77833.53;;;27.57
73673;BMP280;61972;19.480;-99.240;2022-08-19T07:04:27;77832.97;;;27.56
73673;BMP280;61972;19.480;-99.240;2022-08-19T07:07:03;77819.28;;;27.56
73673;BMP280;61972;19.480;-99.240;2022-08-19T07:09:31;77828.69;;;27.55
73673;BMP280;61972;19.480;-99.240;2022-08-19T07:11:57;77824.38;;;27.53
73673;BMP280;61972;19.480;-99.240;2022-08-19T07:14:26;77827.00;;;27.53
73673;BMP280;61972;19.480;-99.240;2022-08-19T07:16:54;77824.78;;;27.51
73673;BMP280;61972;19.480;-99.240;2022-08-19T07:19:22;77830.44;;;27.49
73673;BMP280;61972;19.480;-99.240;2022-08-19T07:21:50;77820.50;;;27.49
73673;BMP280;61972;19.480;-99.240;2022-08-19T07:24:22;77822.41;;;27.46
73673;BMP280;61972;19.480;-99.240;2022-08-19T07:26:50;77818.69;;;27.45
73673;BMP280;61972;19.480;-99.240;2022-08-19T07:29:17;77821.31;;;27.45
73673;BMP280;61972;19.480;-99.240;2022-08-19T07:31:44;77823.38;;;27.45
73673;BMP280;61972;19.480;-99.240;2022-08-19T07:34:12;77830.13;;;27.44
73673;BMP280;61972;19.480;-99.240;2022-08-19T07:36:41;77819.63;;;27.44
73673;BMP280;61972;19.480;-99.240;2022-08-19T07:39:16;77811.03;;;27.41
73673;BMP280;61972;19.480;-99.240;2022-08-19T07:41:44;77800.53;;;27.41
73673;BMP280;61972;19.480;-99.240;2022-08-19T07:44:11;77795.31;;;27.41
73673;BMP280;61972;19.480;-99.240;2022-08-19T07:46:40;77789.50;;;27.40
73673;BMP280;61972;19.480;-99.240;2022-08-19T07:49:07;77799.44;;;27.40
73673;BMP280;61972;19.480;-99.240;2022-08-19T07:51:52;77794.19;;;27.40
73673;BMP280;61972;19.480;-99.240;2022-08-19T07:54:19;77791.97;;;27.38
73673;BMP280;61972;19.480;-99.240;2022-08-19T07:56:46;77784.31;;;27.33
73673;BMP280;61972;19.480;-99.240;2022-08-19T07:59:12;77789.44;;;27.30
73673;BMP280;61972;19.480;-99.240;2022-08-19T08:01:39;77790.41;;;27.29
73673;BMP280;61972;19.480;-99.240;2022-08-19T08:04:06;77772.44;;;27.27
73673;BMP280;61972;19.480;-99.240;2022-08-19T08:06:51;77773.38;;;27.25
73673;BMP280;61972;19.480;-99.240;2022-08-19T08:09:39;77772.25;;;27.24
73673;BMP280;61972;19.480;-99.240;2022-08-19T08:12:12;77781.66;;;27.23
73673;BMP280;61972;19.480;-99.240;2022-08-19T08:14:46;77768.53;;;27.23
73673;BMP280;61972;19.480;-99.240;2022-08-19T08:17:14;77774.19;;;27.21
73673;BMP280;61972;19.480;-99.240;2022-08-19T08:19:42;77768.38;;;27.21
73673;BMP280;61972;19.480;-99.240;2022-08-19T08:22:09;77767.81;;;27.20
73673;BMP280;61972;19.480;-99.240;2022-08-19T08:24:55;77762.56;;;27.20
73673;BMP280;61972;19.480;-99.240;2022-08-19T08:27:24;77767.81;;;27.20
73673;BMP280;61972;19.480;-99.240;2022-08-19T08:29:51;77766.72;;;27.19
73673;BMP280;61972;19.480;-99.240;2022-08-19T08:32:17;77760.91;;;27.19
73673;BMP280;61972;19.480;-99.240;2022-08-19T08:34:43;77760.34;;;27.18
73673;BMP280;61972;19.480;-99.240;2022-08-19T08:37:09;77757.03;;;27.15
73673;BMP280;61972;19.480;-99.240;2022-08-19T08:39:35;77757.97;;;27.13
73673;BMP280;61972;19.480;-99.240;2022-08-19T08:42:21;77753.00;;;27.09
73673;BMP280;61972;19.480;-99.240;2022-08-19T08:45:04;77754.91;;;27.06
73673;BMP280;61972;19.480;-99.240;2022-08-19T08:47:35;77759.03;;;27.05
73673;BMP280;61972;19.480;-99.240;2022-08-19T08:50:05;77753.22;;;27.04
73673;BMP280;61972;19.480;-99.240;2022-08-19T08:52:39;77748.94;;;27.03
73673;BMP280;61972;19.480;-99.240;2022-08-19T08:55:18;77750.84;;;27.00
73673;BMP280;61972;19.480;-99.240;2022-08-19T09:00:29;77754.41;;;26.98
73673;BMP280;61972;19.480;-99.240;2022-08-19T09:02:57;77759.13;;;26.98
73673;BMP280;61972;19.480;-99.240;2022-08-19T09:05:35;77750.13;;;26.97
73673;BMP280;61972;19.480;-99.240;2022-08-19T09:08:10;77751.66;;;26.95
73673;BMP280;61972;19.480;-99.240;2022-08-19T09:10:46;77749.41;;;26.93
73673;BMP280;61972;19.480;-99.240;2022-08-19T09:13:23;77748.88;;;26.93
73673;BMP280;61972;19.480;-99.240;2022-08-19T09:15:56;77745.69;;;26.92
73673;BMP280;61972;19.480;-99.240;2022-08-19T09:18:24;77738.94;;;26.93
73673;BMP280;61972;19.480;-99.240;2022-08-19T09:20:50;77737.81;;;26.92
73673;BMP280;61972;19.480;-99.240;2022-08-19T09:23:19;77741.94;;;26.91
73673;BMP280;61972;19.480;-99.240;2022-08-19T09:25:49;77740.84;;;26.90
73673;BMP280;61972;19.480;-99.240;2022-08-19T09:28:16;77738.06;;;26.88
73673;BMP280;61972;19.480;-99.240;2022-08-19T09:30:42;77736.41;;;26.86
73673;BMP280;61972;19.480;-99.240;2022-08-19T09:33:08;77735.28;;;26.85
73673;BMP280;61972;19.480;-99.240;2022-08-19T09:35:34;77742.03;;;26.84
73673;BMP280;61972;19.480;-99.240;2022-08-19T09:38:01;77738.31;;;26.83
73673;BMP280;61972;19.480;-99.240;2022-08-19T09:40:28;77733.47;;;26.81
73673;BMP280;61972;19.480;-99.240;2022-08-19T09:42:54;77739.66;;;26.80
73673;BMP280;61972;19.480;-99.240;2022-08-19T09:45:21;77734.97;;;26.80
73673;BMP280;61972;19.480;-99.240;2022-08-19T09:47:51;77735.50;;;26.81
73673;BMP280;61972;19.480;-99.240;2022-08-19T09:50:18;77729.72;;;26.80
73673;BMP280;61972;19.480;-99.240;2022-08-19T09:52:45;77726.16;;;26.82
73673;BMP280;61972;19.480;-99.240;2022-08-19T09:55:12;77721.84;;;26.80
73673;BMP280;61972;19.480;-99.240;2022-08-19T09:57:38;77712.31;;;26.79
73673;BMP280;61972;19.480;-99.240;2022-08-19T10:00:07;77721.72;;;26.77
73673;BMP280;61972;19.480;-99.240;2022-08-19T10:02:34;77714.25;;;26.75
73673;BMP280;61972;19.480;-99.240;2022-08-19T10:05:03;77720.44;;;26.74
73673;BMP280;61972;19.480;-99.240;2022-08-19T10:07:47;77723.44;;;26.72
73673;BMP280;61972;19.480;-99.240;2022-08-19T10:10:13;77728.69;;;26.72
73673;BMP280;61972;19.480;-99.240;2022-08-19T10:12:40;77731.31;;;26.72
73673;BMP280;61972;19.480;-99.240;2022-08-19T10:15:06;77732.44;;;26.73
73673;BMP280;61972;19.480;-99.240;2022-08-19T10:17:33;77732.25;;;26.70
73673;BMP280;61972;19.480;-99.240;2022-08-19T10:20:01;77733.78;;;26.69
73673;BMP280;61972;19.480;-99.240;2022-08-19T10:22:28;77729.50;;;26.68
73673;BMP280;61972;19.480;-99.240;2022-08-19T10:24:54;77730.44;;;26.66
73673;BMP280;61972;19.480;-99.240;2022-08-19T10:27:21;77731.00;;;26.67
73673;BMP280;61972;19.480;-99.240;2022-08-19T10:29:47;77723.00;;;26.64
73673;BMP280;61972;19.480;-99.240;2022-08-19T10:32:13;77721.88;;;26.63
73673;BMP280;61972;19.480;-99.240;2022-08-19T10:34:39;77720.19;;;26.62
73673;BMP280;61972;19.480;-99.240;2022-08-19T10:37:06;77714.97;;;26.62
73673;BMP280;61972;19.480;-99.240;2022-08-19T10:39:33;77709.16;;;26.61
73673;BMP280;61972;19.480;-99.240;2022-08-19T10:42:07;77707.50;;;26.60
73673;BMP280;61972;19.480;-99.240;2022-08-19T10:44:36;77700.59;;;26.58
73673;BMP280;61972;19.480;-99.240;2022-08-19T10:47:03;77707.72;;;26.55
73673;BMP280;61972;19.480;-99.240;2022-08-19T10:49:30;77710.75;;;26.53
73673;BMP280;61972;19.480;-99.240;2022-08-19T10:51:56;77710.75;;;26.53
73673;BMP280;61972;19.480;-99.240;2022-08-19T10:54:41;77704.41;;;26.52
73673;BMP280;61972;19.480;-99.240;2022-08-19T10:57:25;77710.22;;;26.52
73673;BMP280;61972;19.480;-99.240;2022-08-19T10:59:55;77708.53;;;26.51
73673;BMP280;61972;19.480;-99.240;2022-08-19T11:02:22;77713.22;;;26.50
73673;BMP280;61972;19.480;-99.240;2022-08-19T11:04:48;77723.16;;;26.50
73673;BMP280;61972;19.480;-99.240;2022-08-19T11:07:16;77725.78;;;26.50
73673;BMP280;61972;19.480;-99.240;2022-08-19T11:09:42;77723.69;;;26.50
73673;BMP280;61972;19.480;-99.240;2022-08-19T11:12:09;77731.03;;;26.50
73673;BMP280;61972;19.480;-99.240;2022-08-19T11:14:36;77725.59;;;26.47
73673;BMP280;61972;19.480;-99.240;2022-08-19T11:17:04;77730.84;;;26.47
73673;BMP280;61972;19.480;-99.240;2022-08-19T11:19:31;77728.63;;;26.45
73673;BMP280;61972;19.480;-99.240;2022-08-19T11:21:57;77726.00;;;26.45
73673;BMP280;61972;19.480;-99.240;2022-08-19T11:24:27;77723.22;;;26.43
73673;BMP280;61972;19.480;-99.240;2022-08-19T11:26:58;77727.91;;;26.42
73673;BMP280;61972;19.480;-99.240;2022-08-19T11:29:26;77733.16;;;26.42
73673;BMP280;61972;19.480;-99.240;2022-08-19T11:31:53;77729.41;;;26.41
73673;BMP280;61972;19.480;-99.240;2022-08-19T11:34:25;77727.75;;;26.39
73673;BMP280;61972;19.480;-99.240;2022-08-19T11:36:54;77728.19;;;26.30
73673;BMP280;61972;19.480;-99.240;2022-08-19T11:39:24;77728.69;;;26.21
73673;BMP280;61972;19.480;-99.240;2022-08-19T11:41:50;77740.19;;;26.12
73673;BMP280;61972;19.480;-99.240;2022-08-19T11:44:17;77736.91;;;26.02
73673;BMP280;61972;19.480;-99.240;2022-08-19T11:46:44;77737.75;;;25.91
73673;BMP280;61972;19.480;-99.240;2022-08-19T11:51:38;77741.53;;;25.84
73673;BMP280;61972;19.480;-99.240;2022-08-19T11:54:05;77748.66;;;25.81
73673;BMP280;61972;19.480;-99.240;2022-08-19T11:56:32;77737.06;;;25.80
73673;BMP280;61972;19.480;-99.240;2022-08-19T11:59:00;77738.03;;;25.79
73673;BMP280;61972;19.480;-99.240;2022-08-19T12:01:27;77738.03;;;25.79
73673;BMP280;61972;19.480;-99.240;2022-08-19T12:06:23;77729.28;;;25.73
73673;BMP280;61972;19.480;-99.240;2022-08-19T12:09:04;77728.19;;;25.72
73673;BMP280;61972;19.480;-99.240;2022-08-19T12:11:31;77741.66;;;25.70
73673;BMP280;61972;19.480;-99.240;2022-08-19T12:13:57;77743.16;;;25.69
73673;BMP280;61972;19.480;-99.240;2022-08-19T12:16:27;77737.22;;;25.66
73673;BMP280;61972;19.480;-99.240;2022-08-19T12:18:54;77739.66;;;25.63
73673;BMP280;61972;19.480;-99.240;2022-08-19T12:21:23;77737.97;;;25.62
73673;BMP280;61972;19.480;-99.240;2022-08-19T12:23:57;77740.44;;;25.59
73673;BMP280;61972;19.480;-99.240;2022-08-19T12:26:25;77741.94;;;25.58
73673;BMP280;61972;19.480;-99.240;2022-08-19T12:28:52;77752.22;;;25.56
73673;BMP280;61972;19.480;-99.240;2022-08-19T12:31:18;77755.22;;;25.54
73673;BMP280;61972;19.480;-99.240;2022-08-19T12:33:45;77762.91;;;25.51
73673;BMP280;61972;19.480;-99.240;2022-08-19T12:36:13;77762.75;;;25.49
73673;BMP280;61972;19.480;-99.240;2022-08-19T12:38:41;77758.47;;;25.47
73673;BMP280;61972;19.480;-99.240;2022-08-19T12:41:12;77762.59;;;25.46
73673;BMP280;61972;19.480;-99.240;2022-08-19T12:43:38;77760.34;;;25.44
73673;BMP280;61972;19.480;-99.240;2022-08-19T12:46:07;77761.69;;;25.40
73673;BMP280;61972;19.480;-99.240;2022-08-19T12:48:34;77765.25;;;25.39
73673;BMP280;61972;19.480;-99.240;2022-08-19T12:51:01;77759.84;;;25.36
73673;BMP280;61972;19.480;-99.240;2022-08-19T12:53:31;77765.44;;;25.34
73673;BMP280;61972;19.480;-99.240;2022-08-19T12:56:00;77760.22;;;25.34
73673;BMP280;61972;19.480;-99.240;2022-08-19T12:58:29;77768.06;;;25.34
73673;BMP280;61972;19.480;-99.240;2022-08-19T13:00:55;77764.34;;;25.33
73673;BMP280;61972;19.480;-99.240;2022-08-19T13:03:21;77768.47;;;25.32
73673;BMP280;61972;19.480;-99.240;2022-08-19T13:05:52;77776.16;;;25.30
73673;BMP280;61972;19.480;-99.240;2022-08-19T13:08:18;77773.91;;;25.27
73673;BMP280;61972;19.480;-99.240;2022-08-19T13:10:45;77783.78;;;25.27
73673;BMP280;61972;19.480;-99.240;2022-08-19T13:13:11;77793.16;;;25.26
73673;BMP280;61972;19.480;-99.240;2022-08-19T13:15:40;77786.81;;;25.25
73673;BMP280;61972;19.480;-99.240;2022-08-19T13:18:07;77789.81;;;25.23
73673;BMP280;61972;19.480;-99.240;2022-08-19T13:20:35;77789.25;;;25.22
73673;BMP280;61972;19.480;-99.240;2022-08-19T13:23:02;77791.69;;;25.20
73673;BMP280;61972;19.480;-99.240;2022-08-19T13:25:30;77799.91;;;25.18
73673;BMP280;61972;19.480;-99.240;2022-08-19T13:27:56;77790.94;;;25.17
73673;BMP280;61972;19.480;-99.240;2022-08-19T13:30:23;77797.69;;;25.16
73673;BMP280;61972;19.480;-99.240;2022-08-19T13:33:08;77795.44;;;25.14
73673;BMP280;61972;19.480;-99.240;2022-08-19T13:35:57;77795.44;;;25.14
73673;BMP280;61972;19.480;-99.240;2022-08-19T13:38:25;77805.34;;;25.13
73673;BMP280;61972;19.480;-99.240;2022-08-19T13:40:53;77811.13;;;25.14
73673;BMP280;61972;19.480;-99.240;2022-08-19T13:43:20;77812.25;;;25.15
73673;BMP280;61972;19.480;-99.240;2022-08-19T13:45:51;77807.03;;;25.15
73673;BMP280;61972;19.480;-99.240;2022-08-19T13:48:22;77814.88;;;25.15
73673;BMP280;61972;19.480;-99.240;2022-08-19T13:50:49;77819.72;;;25.17
73673;BMP280;61972;19.480;-99.240;2022-08-19T13:53:16;77818.59;;;25.16
73673;BMP280;61972;19.480;-99.240;2022-08-19T13:55:43;77814.16;;;25.12
73673;BMP280;61972;19.480;-99.240;2022-08-19T13:58:10;77816.78;;;25.04
73673;BMP280;61972;19.480;-99.240;2022-08-19T14:00:41;77822.06;;;24.97
73673;BMP280;61972;19.480;-99.240;2022-08-19T14:03:08;77824.31;;;24.92